Time;durP1;ratioP1;P1;durP2;ratioP2;P2;SDS_P1;SDS_P2;PMS_P1;PMS_P2;Temp;Humidity;BMP_temperature;BMP_pressure;BME280_temperature;BME280_humidity;BME280_pressure;Samples;Min_cycle;Max_cycle;Signal;HPM_P1;HPM_P2
2022/05/07 00:00:08;;;;;;;;;;;;;;;14.98;50.52;102026.06;5020121;28;19920;-51
2022/05/07 00:02:34;;;;;;;;;;;;;;;14.94;50.57;102023.59;5020092;28;20028;-51
2022/05/07 00:05:00;;;;;;;;;;;;;;;14.93;50.62;102035.13;5022122;28;19925;-50
2022/05/07 00:07:25;;;;;;;;;;;;;;;14.92;50.55;102032.56;5020100;28;19925;-48
2022/05/07 00:09:50;;;;;;;;;;;;;;;14.91;50.67;102029.03;5024031;28;19917;-49
2022/05/07 00:12:15;;;;;;;;;;;;;;;14.89;50.79;102030.97;5025253;28;19917;-47
2022/05/07 00:14:41;;;;;;;;;;;;;;;14.89;50.82;102027.44;5023736;28;19923;-48
2022/05/07 00:19:50;;;;;;;;;;;;;;;14.86;50.89;102020.53;5022156;28;19959;-48
2022/05/07 00:22:16;;;;;;;;;;;;;;;14.85;50.92;102023.25;5024266;28;20439;-50
2022/05/07 00:24:42;;;;;;;;;;;;;;;14.83;50.88;102014.50;5028177;28;19921;-50
2022/05/07 00:27:07;;;;;;;;;;;;;;;14.78;51.05;102017.44;5024541;28;19921;-57
2022/05/07 00:29:33;;;;;;;;;;;;;;;14.77;51.10;102019.22;5018976;28;19917;-55
2022/05/07 00:31:58;;;;;;;;;;;;;;;14.76;51.00;102011.34;5019629;28;19924;-48
2022/05/07 00:34:24;;;;;;;;;;;;;;;14.74;50.99;102007.97;5025803;28;20276;-48
2022/05/07 00:36:50;;;;;;;;;;;;;;;14.73;51.07;102008.91;5019348;28;19917;-51
2022/05/07 00:39:15;;;;;;;;;;;;;;;14.74;51.35;102007.97;5025274;28;19917;-56
2022/05/07 00:41:40;;;;;;;;;;;;;;;14.73;51.34;102011.53;5023276;28;19924;-48
2022/05/07 00:44:05;;;;;;;;;;;;;;;14.70;51.20;102004.59;5020681;28;20296;-52
2022/05/07 00:46:31;;;;;;;;;;;;;;;14.69;51.43;102015.28;5025818;28;19963;-56
2022/05/07 00:48:57;;;;;;;;;;;;;;;14.69;51.43;102008.19;5024761;28;20008;-47
2022/05/07 00:51:35;;;;;;;;;;;;;;;14.70;51.35;102006.41;5026549;28;19913;-49
2022/05/07 00:54:01;;;;;;;;;;;;;;;14.69;51.37;102004.69;5021814;28;19917;-50
2022/05/07 00:56:28;;;;;;;;;;;;;;;14.68;51.49;102002.97;5026707;28;20423;-52
2022/05/07 00:58:54;;;;;;;;;;;;;;;14.67;51.55;102001.25;5029238;28;19920;-49
2022/05/07 01:01:20;;;;;;;;;;;;;;;14.69;51.69;102002.03;5023506;28;19920;-49
2022/05/07 01:03:46;;;;;;;;;;;;;;;14.70;51.77;101998.47;5028777;28;19920;-48
2022/05/07 01:06:12;;;;;;;;;;;;;;;14.72;51.69;102004.53;5025345;28;19921;-51
2022/05/07 01:08:37;;;;;;;;;;;;;;;14.74;51.61;101997.34;5025637;28;19932;-48
2022/05/07 01:11:03;;;;;;;;;;;;;;;14.74;51.83;101989.41;5028781;28;19953;-54
2022/05/07 01:13:28;;;;;;;;;;;;;;;14.73;51.75;101990.34;5026246;28;20108;-49
2022/05/07 01:15:54;;;;;;;;;;;;;;;14.72;51.89;101988.63;5025125;28;19913;-48
2022/05/07 01:18:20;;;;;;;;;;;;;;;14.73;51.91;101985.06;5024463;28;19920;-51
2022/05/07 01:20:45;;;;;;;;;;;;;;;14.72;52.02;101986.00;5027634;28;19943;-51
2022/05/07 01:23:11;;;;;;;;;;;;;;;14.73;52.10;101979.75;5027489;28;19917;-48
2022/05/07 01:25:36;;;;;;;;;;;;;;;14.72;52.08;101981.53;5029069;28;20495;-48
2022/05/07 01:28:01;;;;;;;;;;;;;;;14.73;52.11;101979.75;5022634;28;19921;-50
2022/05/07 01:30:27;;;;;;;;;;;;;;;14.73;52.07;101977.09;5027557;28;19921;-52
2022/05/07 01:32:52;;;;;;;;;;;;;;;14.73;52.19;101979.75;5024773;28;20296;-49
2022/05/07 01:35:18;;;;;;;;;;;;;;;14.73;52.17;101974.44;5025077;28;20021;-48
2022/05/07 01:37:43;;;;;;;;;;;;;;;14.73;52.07;101974.44;5020407;28;19913;-51
2022/05/07 01:40:09;;;;;;;;;;;;;;;14.72;52.27;101978.03;5028951;28;20353;-50
2022/05/07 01:42:34;;;;;;;;;;;;;;;14.71;52.13;101984.28;5022278;28;19960;-49
2022/05/07 01:45:00;;;;;;;;;;;;;;;14.70;52.27;101979.91;5024787;28;20364;-51
2022/05/07 01:50:10;;;;;;;;;;;;;;;14.70;52.12;101980.75;5023927;28;19939;-51
2022/05/07 01:52:35;;;;;;;;;;;;;;;14.71;52.17;101981.63;5026902;28;19925;-48
2022/05/07 01:55:00;;;;;;;;;;;;;;;14.72;52.20;101980.69;5019592;28;19963;-52
2022/05/07 01:57:26;;;;;;;;;;;;;;;14.73;52.07;101982.41;5025223;28;19931;-48
2022/05/07 01:59:51;;;;;;;;;;;;;;;14.73;52.23;101974.44;5027168;28;20552;-48
2022/05/07 02:02:16;;;;;;;;;;;;;;;14.73;51.99;101977.09;5024507;28;19921;-52
2022/05/07 02:04:41;;;;;;;;;;;;;;;14.72;52.01;101978.03;5022199;28;19917;-49
2022/05/07 02:07:10;;;;;;;;;;;;;;;14.71;52.03;101977.16;5022453;28;19920;-50
2022/05/07 02:09:36;;;;;;;;;;;;;;;14.72;52.19;101978.03;5024682;28;19916;-50
2022/05/07 02:12:01;;;;;;;;;;;;;;;14.73;52.02;101982.41;5023557;28;20300;-56
2022/05/07 02:14:27;;;;;;;;;;;;;;;14.72;52.18;101972.75;5020910;28;19920;-52
2022/05/07 02:16:52;;;;;;;;;;;;;;;14.72;52.11;101972.75;5027782;28;19925;-50
2022/05/07 02:19:17;;;;;;;;;;;;;;;14.71;52.16;101971.88;5026899;28;20380;-50
2022/05/07 02:21:43;;;;;;;;;;;;;;;14.69;52.28;101973.75;5024518;28;19960;-49
2022/05/07 02:24:08;;;;;;;;;;;;;;;14.68;52.41;101973.84;5027369;28;20008;-51
2022/05/07 02:26:33;;;;;;;;;;;;;;;14.66;52.14;101973.91;5023418;28;19963;-49
2022/05/07 02:28:59;;;;;;;;;;;;;;;14.65;52.34;101972.19;5026692;28;20292;-52
2022/05/07 02:31:24;;;;;;;;;;;;;;;14.61;52.38;101971.50;5024784;28;19921;-51
2022/05/07 02:33:50;;;;;;;;;;;;;;;14.61;52.31;101975.94;5026006;28;19960;-49
2022/05/07 02:36:15;;;;;;;;;;;;;;;14.58;52.35;101963.75;5026231;28;19971;-52
2022/05/07 02:38:41;;;;;;;;;;;;;;;14.57;52.49;101969.97;5023019;28;19921;-56
2022/05/07 02:43:50;;;;;;;;;;;;;;;14.54;52.57;101964.84;5021761;28;20071;-55
2022/05/07 02:46:15;;;;;;;;;;;;;;;14.53;52.50;101965.78;5029600;28;20470;-56
2022/05/07 02:48:44;;;;;;;;;;;;;;;14.52;52.64;101968.53;5026773;28;19913;-54
2022/05/07 02:51:09;;;;;;;;;;;;;;;14.51;52.71;101965.00;5025196;28;20291;-55
2022/05/07 02:53:35;;;;;;;;;;;;;;;14.48;52.57;101965.16;5027857;28;19913;-57
2022/05/07 02:56:00;;;;;;;;;;;;;;;14.47;52.60;101956.38;5025841;28;19927;-56
2022/05/07 02:58:25;;;;;;;;;;;;;;;14.45;52.88;101955.59;5028337;28;19917;-57
2022/05/07 03:00:51;;;;;;;;;;;;;;;14.45;52.90;101952.97;5024703;28;20007;-54
2022/05/07 03:03:16;;;;;;;;;;;;;;;14.43;52.77;101967.22;5024212;28;19918;-57
2022/05/07 03:05:41;;;;;;;;;;;;;;;14.40;53.04;101956.81;5017898;28;19992;-57
2022/05/07 03:08:07;;;;;;;;;;;;;;;14.38;53.00;101970.09;5023120;28;20176;-53
2022/05/07 03:10:32;;;;;;;;;;;;;;;14.36;52.84;101956.13;5027572;28;19928;-56
2022/05/07 03:12:57;;;;;;;;;;;;;;;14.34;53.04;101973.88;5019155;28;19929;-55
2022/05/07 03:15:24;;;;;;;;;;;;;;;14.32;52.97;101963.34;5023702;28;19920;-57
2022/05/07 03:17:49;;;;;;;;;;;;;;;14.28;53.07;101966.25;5023962;28;19917;-53
2022/05/07 03:20:16;;;;;;;;;;;;;;;14.26;53.12;101966.34;5026383;28;19955;-56
2022/05/07 03:22:41;;;;;;;;;;;;;;;14.23;53.26;101963.00;5026176;28;20377;-55
2022/05/07 03:25:07;;;;;;;;;;;;;;;14.22;53.26;101962.16;5023305;28;19936;-56
2022/05/07 03:27:32;;;;;;;;;;;;;;;14.21;53.27;101956.94;5019495;28;19917;-57
2022/05/07 03:29:58;;;;;;;;;;;;;;;14.20;53.49;101961.38;5023118;28;19966;-54
2022/05/07 03:32:23;;;;;;;;;;;;;;;14.21;53.66;101962.25;5025877;28;20340;-56
2022/05/07 03:34:49;;;;;;;;;;;;;;;14.23;53.33;101960.34;5024016;28;20428;-52
2022/05/07 03:37:15;;;;;;;;;;;;;;;14.22;53.52;101959.50;5022206;28;20051;-53
2022/05/07 03:39:41;;;;;;;;;;;;;;;14.22;53.51;101956.84;5030258;28;20288;-55
2022/05/07 03:42:06;;;;;;;;;;;;;;;14.19;53.32;101964.94;5025222;28;19917;-54
2022/05/07 03:44:31;;;;;;;;;;;;;;;14.18;53.43;101965.88;5029017;28;19913;-55
2022/05/07 03:46:57;;;;;;;;;;;;;;;14.16;53.32;101963.34;5027326;28;19982;-56
2022/05/07 03:49:22;;;;;;;;;;;;;;;14.17;53.67;101956.22;5027840;28;19920;-55
2022/05/07 03:54:31;;;;;;;;;;;;;;;14.20;53.62;101945.50;5029571;28;19924;-55
2022/05/07 03:56:57;;;;;;;;;;;;;;;14.19;53.55;101949.06;5024949;28;19929;-55
2022/05/07 03:59:22;;;;;;;;;;;;;;;14.20;53.35;101948.13;5026423;28;19917;-57
2022/05/07 04:01:47;;;;;;;;;;;;;;;14.21;53.37;101956.94;5023276;28;20035;-56
2022/05/07 04:04:13;;;;;;;;;;;;;;;14.20;53.24;101953.44;5027332;28;19959;-55
2022/05/07 04:06:38;;;;;;;;;;;;;;;14.20;53.31;101956.06;5025575;28;19917;-57
2022/05/07 04:09:03;;;;;;;;;;;;;;;14.18;53.16;101958.81;5026882;28;20393;-55
2022/05/07 04:11:29;;;;;;;;;;;;;;;14.16;53.34;101959.81;5028117;28;20400;-57
2022/05/07 04:13:54;;;;;;;;;;;;;;;14.14;53.14;101959.06;5022517;28;19917;-56
2022/05/07 04:16:19;;;;;;;;;;;;;;;14.13;53.42;101955.56;5021304;28;19976;-54
2022/05/07 04:18:45;;;;;;;;;;;;;;;14.13;53.26;101957.34;5027455;28;20269;-55
2022/05/07 04:21:10;;;;;;;;;;;;;;;14.12;53.14;101953.00;5028697;28;20000;-52
2022/05/07 04:23:35;;;;;;;;;;;;;;;14.13;53.42;101960.00;5023527;28;20015;-55
2022/05/07 04:26:01;;;;;;;;;;;;;;;14.14;53.27;101951.13;5026434;28;19920;-56
2022/05/07 04:28:26;;;;;;;;;;;;;;;14.13;53.13;101960.84;5028465;28;20395;-55
2022/05/07 04:30:51;;;;;;;;;;;;;;;14.14;53.04;101954.63;5026641;28;19944;-56
2022/05/07 04:33:16;;;;;;;;;;;;;;;14.16;53.10;101957.16;5024579;28;19932;-55
2022/05/07 04:35:42;;;;;;;;;;;;;;;14.18;52.98;101965.88;5029965;28;19959;-55
2022/05/07 04:38:07;;;;;;;;;;;;;;;14.22;53.03;101959.50;5028751;28;19967;-57
2022/05/07 04:40:32;;;;;;;;;;;;;;;14.26;53.07;101966.34;5029067;28;20000;-53
2022/05/07 04:42:58;;;;;;;;;;;;;;;14.28;52.99;101963.59;5027339;28;19917;-54
2022/05/07 04:45:25;;;;;;;;;;;;;;;14.31;52.92;101963.44;5023652;28;19962;-53
2022/05/07 04:47:50;;;;;;;;;;;;;;;14.33;53.05;101972.16;5024052;28;19963;-52
2022/05/07 04:50:16;;;;;;;;;;;;;;;14.29;53.14;101960.88;5032042;28;19944;-53
2022/05/07 04:52:41;;;;;;;;;;;;;;;14.28;53.00;101969.78;5028380;28;19917;-55
2022/05/07 04:55:07;;;;;;;;;;;;;;;14.30;53.03;101967.88;5019452;28;19921;-57
2022/05/07 04:57:32;;;;;;;;;;;;;;;14.32;53.22;101966.00;5026993;28;19924;-55
2022/05/07 04:59:59;;;;;;;;;;;;;;;14.36;53.17;101971.13;5030202;28;20414;-55
2022/05/07 05:02:25;;;;;;;;;;;;;;;14.40;53.16;101968.22;5026958;28;19966;-54
2022/05/07 05:04:50;;;;;;;;;;;;;;;14.44;53.03;101974.25;5016220;28;19917;-52
2022/05/07 05:07:16;;;;;;;;;;;;;;;14.47;52.85;101971.41;5029348;28;20023;-56
2022/05/07 05:09:41;;;;;;;;;;;;;;;14.49;53.11;101958.94;5014364;28;19916;-56
2022/05/07 05:12:06;;;;;;;;;;;;;;;14.52;53.09;101966.72;5014717;28;19963;-57
2022/05/07 05:17:16;;;;;;;;;;;;;;;14.61;52.82;101963.53;5024521;28;19975;-54
2022/05/07 05:19:41;;;;;;;;;;;;;;;14.64;52.77;101981.91;5025104;28;20370;-54
2022/05/07 05:22:06;;;;;;;;;;;;;;;14.65;52.81;101972.19;5008301;28;19922;-52
2022/05/07 05:24:32;;;;;;;;;;;;;;;14.70;52.87;101969.31;5026478;28;19930;-55
2022/05/07 05:26:57;;;;;;;;;;;;;;;14.74;52.80;101969.06;5025140;28;19920;-54
2022/05/07 05:29:23;;;;;;;;;;;;;;;14.80;52.67;101967.00;5028053;28;19956;-55
2022/05/07 05:31:48;;;;;;;;;;;;;;;14.82;52.47;101971.28;5024423;28;19928;-53
2022/05/07 05:34:14;;;;;;;;;;;;;;;14.86;52.42;101967.53;5014836;28;19925;-52
2022/05/07 05:36:39;;;;;;;;;;;;;;;14.88;52.44;101973.59;5016163;28;20360;-56
2022/05/07 05:39:07;;;;;;;;;;;;;;;14.91;52.38;101973.41;5021127;28;19925;-51
2022/05/07 05:41:33;;;;;;;;;;;;;;;14.97;52.31;101976.66;5025200;28;19974;-52
2022/05/07 05:43:59;;;;;;;;;;;;;;;14.99;52.12;101970.31;5025097;28;19921;-55
2022/05/07 05:46:24;;;;;;;;;;;;;;;15.03;52.15;101979.81;5020122;28;19921;-54
2022/05/07 05:48:49;;;;;;;;;;;;;;;15.07;52.02;101986.66;5023314;28;19921;-52
2022/05/07 05:51:14;;;;;;;;;;;;;;;15.09;52.00;101983.91;5017997;28;19944;-52
2022/05/07 05:53:40;;;;;;;;;;;;;;;15.12;52.00;101985.53;5020843;28;19921;-53
2022/05/07 05:56:05;;;;;;;;;;;;;;;15.13;52.02;101985.44;5026818;28;19917;-55
2022/05/07 05:58:33;;;;;;;;;;;;;;;15.16;52.03;101987.06;5022007;28;19975;-56
2022/05/07 06:00:59;;;;;;;;;;;;;;;15.16;51.89;101979.09;5021118;28;19975;-53
2022/05/07 06:03:25;;;;;;;;;;;;;;;15.17;52.07;101979.03;5018818;28;20324;-53
2022/05/07 06:05:50;;;;;;;;;;;;;;;15.20;52.03;101989.44;5024957;28;19979;-54
2022/05/07 06:08:16;;;;;;;;;;;;;;;15.24;51.88;101980.38;5015846;28;20389;-54
2022/05/07 06:10:41;;;;;;;;;;;;;;;15.27;52.00;101983.78;5017078;28;19991;-53
2022/05/07 06:13:06;;;;;;;;;;;;;;;15.28;51.87;101985.50;5025028;28;19943;-54
2022/05/07 06:15:31;;;;;;;;;;;;;;;15.31;51.77;101980.03;5018776;28;19920;-55
2022/05/07 06:17:57;;;;;;;;;;;;;;;15.32;51.83;101979.91;5020709;28;19995;-54
2022/05/07 06:20:22;;;;;;;;;;;;;;;15.32;51.84;101976.44;5012766;28;19952;-55
2022/05/07 06:22:47;;;;;;;;;;;;;;;15.32;51.79;101976.44;5023817;28;19925;-54
2022/05/07 06:27:59;;;;;;;;;;;;;;;15.29;51.81;101977.44;5021348;28;19932;-54
2022/05/07 06:30:25;;;;;;;;;;;;;;;15.31;52.03;101980.03;5021179;28;19917;-56
2022/05/07 06:32:50;;;;;;;;;;;;;;;15.32;51.92;101979.09;5028374;28;20377;-54
2022/05/07 06:35:15;;;;;;;;;;;;;;;15.30;51.91;101987.09;5027800;28;19914;-52
2022/05/07 06:37:46;;;;;;;;;;;;;;;15.29;51.98;101977.44;5021153;28;19921;-54
2022/05/07 06:40:11;;;;;;;;;;;;;;;15.28;52.05;101980.19;5027062;28;19936;-54
2022/05/07 06:42:37;;;;;;;;;;;;;;;15.27;52.53;101984.66;5028526;28;19916;-51
2022/05/07 06:45:03;;;;;;;;;;;;;;;15.29;52.58;101984.56;5019638;28;20036;-51
2022/05/07 06:47:28;;;;;;;;;;;;;;;15.31;52.58;101991.47;5023247;28;19920;-52
2022/05/07 06:49:53;;;;;;;;;;;;;;;15.32;52.63;101985.22;5021230;28;19916;-50
2022/05/07 06:52:19;;;;;;;;;;;;;;;15.33;52.88;101984.28;5022981;28;20332;-53
2022/05/07 06:54:45;;;;;;;;;;;;;;;15.35;52.98;101990.34;5030370;28;19920;-54
2022/05/07 06:57:10;;;;;;;;;;;;;;;15.37;52.88;101990.25;5022706;28;20357;-54
2022/05/07 06:59:36;;;;;;;;;;;;;;;15.37;53.14;101996.44;5002130;28;20004;-54
2022/05/07 07:02:02;;;;;;;;;;;;;;;15.38;52.92;101992.84;5018125;28;19952;-54
2022/05/07 07:04:27;;;;;;;;;;;;;;;15.41;53.11;102001.56;5017910;28;19919;-53
2022/05/07 07:06:53;;;;;;;;;;;;;;;15.45;53.14;101998.63;5020799;28;20408;-53
2022/05/07 07:09:18;;;;;;;;;;;;;;;15.48;53.25;102006.41;5023558;28;19943;-51
2022/05/07 07:11:44;;;;;;;;;;;;;;;15.51;53.24;102002.72;5028379;28;20490;-54
2022/05/07 07:14:19;;;;;;;;;;;;;;;;;;;;;
2022/05/07 07:16:55;;;;;;;;;;;;;;;;;;;;;
2022/05/07 07:19:31;;;;;;;;;;;;;;;;;;;;;
2022/05/07 07:22:06;;;;;;;;;;;;;;;;;;;;;
2022/05/07 07:24:42;;;;;;;;;;;;;;;;;;;;;
2022/05/07 07:27:20;;;;;;;;;;;;;;;;;;;;;
2022/05/07 07:29:57;;;;;;;;;;;;;;;;;;;;;
2022/05/07 07:32:33;;;;;;;;;;;;;;;;;;;;;
2022/05/07 07:35:09;;;;;;;;;;;;;;;;;;;;;
2022/05/07 07:37:44;;;;;;;;;;;;;;;;;;;;;
2022/05/07 07:40:20;;;;;;;;;;;;;;;;;;;;;
2022/05/07 07:42:56;;;;;;;;;;;;;;;;;;;;;
2022/05/07 07:48:16;;;;;;;;;;;;;;;;;;;;;
2022/05/07 07:50:51;;;;;;;;;;;;;;;;;;;;;
2022/05/07 07:53:27;;;;;;;;;;;;;;;;;;;;;
2022/05/07 07:56:02;;;;;;;;;;;;;;;;;;;;;
2022/05/07 07:58:28;;;;;;;;;;;;;;;16.93;52.07;101990.53;5014932;28;19924;-45
2022/05/07 08:00:53;;;;;;;;;;;;;;;16.99;51.83;101989.28;5027218;28;19921;-47
2022/05/07 08:03:19;;;;;;;;;;;;;;;17.04;51.63;101982.72;5023815;28;19956;-50
2022/05/07 08:05:52;;;;;;;;;;;;;;;17.12;51.47;101992.00;5023890;28;20022;-46
2022/05/07 08:13:46;;;;;;;;;;;;;;;17.28;50.94;101983.84;5029422;28;19920;-46
2022/05/07 08:16:12;;;;;;;;;;;;;;;17.34;50.85;101988.78;5021259;28;19921;-49
2022/05/07 08:18:38;;;;;;;;;;;;;;;17.41;50.81;101979.41;5019812;28;19925;-49
2022/05/07 08:21:05;;;;;;;;;;;;;;;17.50;50.58;101975.28;5022096;28;19928;-48
2022/05/07 08:23:30;;;;;;;;;;;;;;;17.58;50.50;101977.44;5016040;28;19917;-49
2022/05/07 08:25:56;;;;;;;;;;;;;;;17.66;50.37;101981.28;5026935;28;19929;-49
2022/05/07 08:28:24;;;;;;;;;;;;;;;17.75;50.31;101984.28;5026036;28;19917;-51
2022/05/07 08:30:49;;;;;;;;;;;;;;;17.80;50.19;101977.69;5019820;28;20486;-48
2022/05/07 08:33:17;;;;;;;;;;;;;;;17.89;50.04;101978.84;5026845;28;19921;-52
2022/05/07 08:35:43;;;;;;;;;;;;;;;17.96;49.92;101987.28;5020531;28;19966;-53
2022/05/07 08:38:08;;;;;;;;;;;;;;;18.01;49.87;101982.47;5026281;28;19940;-49
2022/05/07 08:40:33;;;;;;;;;;;;;;;18.05;49.77;101980.47;5019210;28;19917;-48
2022/05/07 08:42:59;;;;;;;;;;;;;;;18.08;49.53;101980.25;5029212;28;20265;-52
2022/05/07 08:45:24;;;;;;;;;;;;;;;18.10;49.64;101981.84;5005090;28;19971;-52
2022/05/07 08:47:53;;;;;;;;;;;;;;;18.14;49.32;101995.81;5025258;28;19925;-50
2022/05/07 08:50:19;;;;;;;;;;;;;;;18.18;48.98;101991.09;5026206;28;19925;-49
2022/05/07 08:52:45;;;;;;;;;;;;;;;18.21;48.72;102001.56;5018499;28;19913;-50
2022/05/07 08:55:15;;;;;;;;;;;;;;;18.26;48.42;102002.94;5022419;28;19913;-48
2022/05/07 08:57:42;;;;;;;;;;;;;;;18.32;47.98;101998.13;5025397;28;19959;-50
2022/05/07 09:00:08;;;;;;;;;;;;;;;18.39;47.93;102002.06;5021760;28;19917;-50
2022/05/07 09:02:38;;;;;;;;;;;;;;;18.45;47.76;102003.47;5027154;28;19923;-50
2022/05/07 09:05:05;;;;;;;;;;;;;;;18.48;47.61;101993.41;5023737;28;19951;-51
2022/05/07 09:07:31;;;;;;;;;;;;;;;18.51;47.34;102003.00;5025982;28;19925;-50
2022/05/07 09:09:56;;;;;;;;;;;;;;;18.51;46.49;102001.19;5027381;28;19913;-50
2022/05/07 09:12:25;;;;;;;;;;;;;;;18.52;46.42;102000.25;5030723;28;19924;-50
2022/05/07 09:14:51;;;;;;;;;;;;;;;18.57;46.64;102003.41;5019475;28;19985;-50
2022/05/07 09:17:19;;;;;;;;;;;;;;;18.63;46.71;101995.94;5017013;28;19929;-49
2022/05/07 09:19:44;;;;;;;;;;;;;;;18.70;46.44;101997.19;5017091;28;19963;-49
2022/05/07 09:22:10;;;;;;;;;;;;;;;18.79;46.49;101996.53;5015913;28;19925;-51
2022/05/07 09:24:36;;;;;;;;;;;;;;;18.89;46.13;102008.22;5014923;28;19922;-49
2022/05/07 09:27:05;;;;;;;;;;;;;;;18.96;46.05;102003.31;5025800;28;19967;-49
2022/05/07 09:29:31;;;;;;;;;;;;;;;19.00;45.88;101998.59;5027413;28;19959;-50
2022/05/07 09:32:06;;;;;;;;;;;;;;;19.00;45.99;102001.28;5030467;28;19909;-50
2022/05/07 09:37:39;;;;;;;;;;;;;;;19.07;45.95;101989.19;4966101;28;19976;-49
2022/05/07 09:40:06;;;;;;;;;;;;;;;19.12;45.49;101995.06;5002484;28;19932;-50
2022/05/07 09:42:33;;;;;;;;;;;;;;;19.17;45.53;102003.53;5022446;28;19941;-51
2022/05/07 09:44:59;;;;;;;;;;;;;;;19.24;45.23;101989.75;5027224;28;19956;-49
2022/05/07 09:47:26;;;;;;;;;;;;;;;19.26;45.40;102004.66;5027271;28;20410;-50
2022/05/07 09:57:30;;;;;;;;;;;;;;;19.32;45.19;101992.69;5026650;28;20198;-50
2022/05/07 09:58:08;;;;;;;;;;;;;;;19.33;45.02;101989.91;5022530;28;19924;-51
2022/05/07 10:00:35;;;;;;;;;;;;;;;19.35;44.86;101997.78;5026297;28;19909;-48
2022/05/07 10:03:11;;;;;;;;;;;;;;;19.40;44.97;102000.97;5021404;28;19917;-49
2022/05/07 10:05:48;;;;;;;;;;;;;;;19.42;44.69;101985.72;5020189;28;19917;-51
2022/05/07 10:08:25;;;;;;;;;;;;;;;19.42;44.96;101985.72;5025281;28;19978;-49
2022/05/07 10:10:52;;;;;;;;;;;;;;;19.46;44.35;101978.31;5027014;28;19913;-48
2022/05/07 10:13:18;;;;;;;;;;;;;;;19.48;43.80;101990.56;5028542;28;19913;-49
2022/05/07 10:15:46;;;;;;;;;;;;;;;19.54;43.92;101996.41;5024140;28;19967;-48
2022/05/07 10:18:15;;;;;;;;;;;;;;;19.57;43.77;101982.84;5019396;28;19923;-48
2022/05/07 10:20:43;;;;;;;;;;;;;;;19.61;43.76;101981.59;5025049;28;19916;-49
2022/05/07 10:23:10;;;;;;;;;;;;;;;19.67;43.28;101991.81;5010228;28;19928;-51
2022/05/07 10:25:36;;;;;;;;;;;;;;;19.72;43.29;101987.00;5026133;28;19975;-52
2022/05/07 10:28:12;;;;;;;;;;;;;;;19.78;43.30;101981.16;5023188;28;19913;-49
2022/05/07 10:30:47;;;;;;;;;;;;;;;19.87;42.92;101984.13;5025736;28;19924;-46
2022/05/07 10:33:12;;;;;;;;;;;;;;;19.93;43.15;101979.16;5011392;28;19925;-53
2022/05/07 10:35:55;;;;;;;;;;;;;;;19.99;43.20;101977.84;5022526;28;19915;-52
2022/05/07 10:38:27;;;;;;;;;;;;;;;20.07;43.14;101978.06;5023952;28;19921;-50
2022/05/07 10:40:58;;;;;;;;;;;;;;;20.15;42.97;101979.28;5012566;28;19913;-49
2022/05/07 10:43:28;;;;;;;;;;;;;;;20.19;42.96;101980.75;5015339;28;19921;-52
2022/05/07 10:45:54;;;;;;;;;;;;;;;20.20;43.00;101979.75;5019524;28;19928;-49
2022/05/07 10:48:20;;;;;;;;;;;;;;;20.24;42.90;101967.88;5023989;28;19916;-51
2022/05/07 10:50:49;;;;;;;;;;;;;;;20.30;43.19;101975.41;5023299;28;19916;-49
2022/05/07 10:53:15;;;;;;;;;;;;;;;20.36;42.96;101972.22;5019631;28;20051;-50
2022/05/07 10:55:40;;;;;;;;;;;;;;;20.42;42.92;101970.88;5020202;28;19913;-47
2022/05/07 10:58:05;;;;;;;;;;;;;;;20.49;42.78;101968.59;5020599;28;19917;-49
2022/05/07 11:00:31;;;;;;;;;;;;;;;20.56;42.23;101967.09;5025531;28;19924;-47
2022/05/07 11:02:58;;;;;;;;;;;;;;;20.62;41.95;101985.34;5024505;28;19999;-50
2022/05/07 11:05:33;;;;;;;;;;;;;;;20.59;42.22;101972.19;5012174;28;19925;-49
2022/05/07 11:08:00;;;;;;;;;;;;;;;20.55;42.33;101970.75;5019795;28;19917;-49
2022/05/07 11:10:25;;;;;;;;;;;;;;;20.54;42.13;101961.88;5024512;28;20027;-48
2022/05/07 11:12:50;;;;;;;;;;;;;;;20.50;42.07;101973.78;5023643;28;20004;-50
2022/05/07 11:15:24;;;;;;;;;;;;;;;20.45;41.83;101964.44;5027418;28;19916;-47
2022/05/07 11:17:49;;;;;;;;;;;;;;;20.40;42.51;101963.00;5020694;28;19920;-51
2022/05/07 11:20:14;;;;;;;;;;;;;;;20.39;42.61;101955.94;5018741;28;19947;-53
2022/05/07 11:22:40;;;;;;;;;;;;;;;20.42;42.54;101954.84;5017165;28;20297;-52
2022/05/07 11:25:05;;;;;;;;;;;;;;;20.43;42.35;101953.03;5022773;28;20028;-48
2022/05/07 11:27:32;;;;;;;;;;;;;;;20.45;42.63;101953.75;5023515;28;19978;-50
2022/05/07 11:29:58;;;;;;;;;;;;;;;20.48;42.75;101949.00;5026585;28;19928;-49
2022/05/07 11:32:24;;;;;;;;;;;;;;;20.54;42.51;101947.66;5017523;28;19922;-53
2022/05/07 11:34:53;;;;;;;;;;;;;;;20.64;42.39;101948.63;5021511;28;19924;-52
2022/05/07 11:37:19;;;;;;;;;;;;;;;20.73;42.27;101935.47;5021704;28;20369;-53
2022/05/07 11:39:48;;;;;;;;;;;;;;;20.78;42.11;101933.28;5013770;28;19932;-50
2022/05/07 11:42:32;;;;;;;;;;;;;;;20.81;42.01;101933.88;5019818;28;19916;-48
2022/05/07 11:47:57;;;;;;;;;;;;;;;20.87;41.60;101937.88;5022283;28;20012;-50
2022/05/07 11:50:24;;;;;;;;;;;;;;;20.85;41.93;101929.97;5022247;28;19913;-51
2022/05/07 11:52:50;;;;;;;;;;;;;;;20.89;41.82;101940.41;5012723;28;19925;-51
2022/05/07 11:55:17;;;;;;;;;;;;;;;20.92;41.82;101929.47;5012887;28;19952;-49
2022/05/07 11:57:46;;;;;;;;;;;;;;;20.93;42.07;101936.50;5020691;28;19936;-50
2022/05/07 12:00:22;;;;;;;;;;;;;;;20.94;42.25;101935.53;5020379;28;19932;-50
2022/05/07 12:02:57;;;;;;;;;;;;;;;20.97;41.87;101928.09;5017620;28;19917;-49
2022/05/07 12:05:24;;;;;;;;;;;;;;;21.00;41.99;101922.50;5018940;28;19967;-48
2022/05/07 12:07:50;;;;;;;;;;;;;;;21.08;42.19;101927.19;5019976;28;19920;-52
2022/05/07 12:10:17;;;;;;;;;;;;;;;21.15;42.23;101916.81;5021681;28;19929;-49
2022/05/07 12:12:42;;;;;;;;;;;;;;;21.23;42.01;101914.38;5017281;28;20360;-50
2022/05/07 12:15:08;;;;;;;;;;;;;;;21.30;41.72;101912.84;5024300;28;19924;-47
2022/05/07 12:20:17;;;;;;;;;;;;;;;21.26;41.51;101915.91;5021709;28;19928;-52
2022/05/07 12:30:54;;;;;;;;;;;;;;;20.83;41.87;101936.41;5024707;28;19932;-51
2022/05/07 12:33:19;;;;;;;;;;;;;;;20.72;43.02;101939.97;5017371;28;19921;-48
2022/05/07 12:35:44;;;;;;;;;;;;;;;20.58;44.02;101948.25;5021220;28;19940;-51
2022/05/07 12:38:10;;;;;;;;;;;;;;;20.41;44.50;101945.16;5019726;28;20055;-51
2022/05/07 12:40:36;;;;;;;;;;;;;;;20.27;44.58;101945.41;5023031;28;20000;-50
2022/05/07 12:43:01;;;;;;;;;;;;;;;20.17;45.48;101935.44;5019838;28;20009;-52
2022/05/07 12:45:26;;;;;;;;;;;;;;;20.09;45.94;101938.72;5024253;28;20392;-50
2022/05/07 12:47:52;;;;;;;;;;;;;;;20.03;45.96;101928.53;5025068;28;20001;-50
2022/05/07 12:50:17;;;;;;;;;;;;;;;20.03;46.00;101933.00;5024446;28;20474;-50
2022/05/07 12:52:42;;;;;;;;;;;;;;;20.01;45.90;101925.13;5027572;28;19946;-51
2022/05/07 12:55:08;;;;;;;;;;;;;;;20.01;45.83;101924.28;5021276;28;19920;-51
2022/05/07 12:57:33;;;;;;;;;;;;;;;20.02;45.84;101929.50;5018134;28;19959;-53
2022/05/07 12:59:58;;;;;;;;;;;;;;;20.07;45.45;101924.63;5024800;28;19925;-53
2022/05/07 13:02:24;;;;;;;;;;;;;;;20.13;45.39;101922.44;5020936;28;20285;-51
2022/05/07 13:04:49;;;;;;;;;;;;;;;20.20;45.60;101919.16;5007283;28;19933;-51
2022/05/07 13:07:14;;;;;;;;;;;;;;;20.33;44.99;101923.50;5008455;28;19995;-51
2022/05/07 13:09:40;;;;;;;;;;;;;;;20.48;44.80;101913.41;5018757;28;20277;-49
2022/05/07 13:12:05;;;;;;;;;;;;;;;20.61;44.23;101910.56;5017735;28;20373;-50
2022/05/07 13:14:32;;;;;;;;;;;;;;;20.67;44.08;101908.22;5023077;28;19923;-50
2022/05/07 13:16:57;;;;;;;;;;;;;;;20.74;43.51;101899.72;5021478;28;19979;-53
2022/05/07 13:19:23;;;;;;;;;;;;;;;20.83;43.62;101894.47;5023736;28;20385;-52
2022/05/07 13:21:49;;;;;;;;;;;;;;;20.91;43.33;101901.88;5022849;28;19914;-52
2022/05/07 13:24:14;;;;;;;;;;;;;;;20.98;43.00;101897.69;5021452;28;19925;-50
2022/05/07 13:26:40;;;;;;;;;;;;;;;21.07;43.06;101900.59;5022599;28;19932;-51
2022/05/07 13:29:06;;;;;;;;;;;;;;;21.19;42.94;101894.19;5026219;28;19913;-50
2022/05/07 13:31:32;;;;;;;;;;;;;;;21.29;42.78;101910.31;5022910;28;19913;-52
2022/05/07 13:33:57;;;;;;;;;;;;;;;21.32;42.22;101894.84;5025312;28;19913;-52
2022/05/07 13:36:23;;;;;;;;;;;;;;;21.40;42.24;101893.34;5023017;28;20016;-53
2022/05/07 13:38:48;;;;;;;;;;;;;;;21.46;42.34;101908.84;5024741;28;19928;-52